createdAt,value
2018-04-26T00:01:40.801Z,13.17
2018-04-26T00:04:08.103Z,10.53
2018-04-26T00:06:34.321Z,8.67
2018-04-26T00:09:00.559Z,9.27
2018-04-26T00:11:26.905Z,7.50
2018-04-26T00:13:53.241Z,9.53
2018-04-26T00:16:19.533Z,7.80
2018-04-26T00:18:45.809Z,6.83
2018-04-26T00:21:12.135Z,8.80
2018-04-26T00:23:38.552Z,6.13
2018-04-26T00:26:04.785Z,7.10
2018-04-26T00:28:31.200Z,6.10
2018-04-26T00:30:57.462Z,7.13
2018-04-26T00:33:23.768Z,6.60
2018-04-26T00:35:50.159Z,6.60
2018-04-26T00:38:17.149Z,7.00
2018-04-26T00:40:43.480Z,10.10
2018-04-26T00:43:09.717Z,6.63
2018-04-26T00:45:35.956Z,7.57
2018-04-26T00:48:02.325Z,8.67
2018-04-26T00:50:28.486Z,7.90
2018-04-26T00:52:54.772Z,10.43
2018-04-26T00:55:21.095Z,7.63
2018-04-26T00:57:47.356Z,11.00
2018-04-26T01:00:13.582Z,12.10
2018-04-26T01:02:39.930Z,10.53
2018-04-26T01:05:06.187Z,11.47
2018-04-26T01:07:32.420Z,14.83
2018-04-26T01:09:58.659Z,17.70
2018-04-26T01:12:24.897Z,16.80
2018-04-26T01:14:51.480Z,19.57
2018-04-26T01:17:17.860Z,18.87
2018-04-26T01:19:44.099Z,18.50
2018-04-26T01:22:10.370Z,20.20
2018-04-26T01:24:36.852Z,21.73
2018-04-26T01:27:03.155Z,20.07
2018-04-26T01:29:29.449Z,23.70
2018-04-26T01:31:56.519Z,19.10
2018-04-26T01:34:22.755Z,19.70
2018-04-26T01:37:01.283Z,29.40
2018-04-26T01:39:27.669Z,20.30
2018-04-26T01:41:54.680Z,24.60
2018-04-26T01:44:21.036Z,26.20
2018-04-26T01:46:48.999Z,20.37
2018-04-26T01:49:15.217Z,22.63
2018-04-26T01:51:41.588Z,20.10
2018-04-26T01:54:08.585Z,20.03
2018-04-26T01:56:34.863Z,21.87
2018-04-26T01:59:01.838Z,20.30
2018-04-26T02:01:28.152Z,19.70
2018-04-26T02:03:54.383Z,19.60
2018-04-26T02:06:20.692Z,24.13
2018-04-26T02:08:47.813Z,17.20
2018-04-26T02:11:14.070Z,22.27
2018-04-26T02:13:41.141Z,17.83
2018-04-26T02:16:07.437Z,24.50
2018-04-26T02:18:33.731Z,18.77
2018-04-26T02:20:59.968Z,16.87
2018-04-26T02:23:26.354Z,21.63
2018-04-26T02:25:53.380Z,24.97
2018-04-26T02:28:19.718Z,18.60
2018-04-26T02:30:46.845Z,14.83
2018-04-26T02:33:13.244Z,17.53
2018-04-26T02:35:39.553Z,22.10
2018-04-26T02:38:06.535Z,22.40
2018-04-26T02:40:32.925Z,11.83
2018-04-26T02:43:00.022Z,17.43
2018-04-26T02:45:26.304Z,10.70
2018-04-26T02:47:53.432Z,11.67
2018-04-26T02:50:19.688Z,11.30
2018-04-26T02:52:46.024Z,11.47
2018-04-26T02:55:12.276Z,12.97
2018-04-26T02:57:38.579Z,14.83
2018-04-26T03:00:05.642Z,13.90
2018-04-26T03:02:31.911Z,16.10
2018-04-26T03:04:58.156Z,12.70
2018-04-26T03:07:24.413Z,19.07
2018-04-26T03:09:51.513Z,18.30
2018-04-26T03:12:17.754Z,20.23
2018-04-26T03:14:43.987Z,14.83
2018-04-26T03:17:10.240Z,15.37
2018-04-26T03:19:37.485Z,14.30
2018-04-26T03:22:03.721Z,14.10
2018-04-26T03:24:30.702Z,15.17
2018-04-26T03:26:56.946Z,12.00
2018-04-26T03:29:23.776Z,13.50
2018-04-26T03:31:50.080Z,10.07
2018-04-26T03:34:17.089Z,11.23
2018-04-26T03:36:43.501Z,11.10
2018-04-26T03:39:09.800Z,10.70
2018-04-26T03:41:37.234Z,10.93
2018-04-26T03:44:03.552Z,11.47
2018-04-26T03:46:29.883Z,12.33
2018-04-26T03:48:56.247Z,11.47
2018-04-26T03:51:23.249Z,14.30
2018-04-26T03:53:49.534Z,11.17
2018-04-26T03:56:15.837Z,11.63
2018-04-26T03:58:42.132Z,13.90
2018-04-26T04:01:20.552Z,15.70
2018-04-26T04:03:59.161Z,14.77
2018-04-26T04:06:25.398Z,9.83
2018-04-26T04:08:51.663Z,12.43
2018-04-26T04:11:18.725Z,10.50
2018-04-26T04:13:46.179Z,15.10
2018-04-26T04:16:13.236Z,12.90
2018-04-26T04:18:40.224Z,10.10
2018-04-26T04:21:06.521Z,14.77
2018-04-26T04:23:33.504Z,12.60
2018-04-26T04:25:59.864Z,11.87
2018-04-26T04:28:26.513Z,12.60
2018-04-26T04:30:52.823Z,15.13
2018-04-26T04:33:19.200Z,10.60
2018-04-26T04:35:46.273Z,21.57
2018-04-26T04:38:12.575Z,9.63
2018-04-26T04:40:39.554Z,13.20
2018-04-26T04:43:05.793Z,9.07
2018-04-26T04:45:32.035Z,8.63
2018-04-26T04:47:58.283Z,10.07
2018-04-26T04:50:24.541Z,8.30
2018-04-26T04:52:52.135Z,10.90
2018-04-26T04:55:18.397Z,12.03
2018-04-26T04:57:44.720Z,9.00
2018-04-26T05:00:11.049Z,9.43
2018-04-26T05:02:37.553Z,9.30
2018-04-26T05:05:03.886Z,10.13
2018-04-26T05:07:30.170Z,9.30
2018-04-26T05:09:56.612Z,8.93
2018-04-26T05:12:22.996Z,11.33
2018-04-26T05:14:49.271Z,8.50
2018-04-26T05:17:16.716Z,7.90
2018-04-26T05:19:42.969Z,8.73
2018-04-26T05:22:09.176Z,7.53
2018-04-26T05:24:35.564Z,10.33
2018-04-26T05:27:01.804Z,6.83
2018-04-26T05:29:28.100Z,11.73
2018-04-26T05:31:55.083Z,7.70
2018-04-26T05:34:21.345Z,9.20
2018-04-26T05:36:47.685Z,8.50
2018-04-26T05:39:15.066Z,12.57
2018-04-26T05:41:41.464Z,9.87
2018-04-26T05:44:07.764Z,9.17
2018-04-26T05:46:34.100Z,9.30
2018-04-26T05:49:00.411Z,7.57
2018-04-26T05:51:26.674Z,8.77
2018-04-26T05:53:53.701Z,8.50
2018-04-26T05:56:20.684Z,7.47
2018-04-26T05:58:47.004Z,7.70
2018-04-26T06:01:13.403Z,9.00
2018-04-26T06:03:39.760Z,6.00
2018-04-26T06:06:06.034Z,6.83
2018-04-26T06:08:33.044Z,5.43
2018-04-26T06:10:59.438Z,7.23
2018-04-26T06:13:25.959Z,5.90
2018-04-26T06:15:52.262Z,6.20
2018-04-26T06:18:19.866Z,5.10
2018-04-26T06:20:46.808Z,7.30
2018-04-26T06:23:13.118Z,5.67
2018-04-26T06:25:39.415Z,5.03
2018-04-26T06:28:06.663Z,5.07
2018-04-26T06:30:32.945Z,4.90
2018-04-26T06:32:59.329Z,4.40
2018-04-26T06:35:25.795Z,5.40
2018-04-26T06:37:52.944Z,5.57
2018-04-26T06:40:19.233Z,5.17
2018-04-26T06:42:45.565Z,7.00
2018-04-26T06:45:11.857Z,6.70
2018-04-26T06:47:38.283Z,4.77
2018-04-26T06:50:05.788Z,4.97
2018-04-26T06:52:31.997Z,4.23
2018-04-26T06:54:58.233Z,4.20
2018-04-26T06:57:24.472Z,4.23
2018-04-26T06:59:50.752Z,3.67
2018-04-26T07:02:17.727Z,3.13
2018-04-26T07:04:43.940Z,3.20
2018-04-26T07:07:10.871Z,2.63
2018-04-26T07:09:37.932Z,2.30
2018-04-26T07:12:05.090Z,5.13
2018-04-26T07:14:31.237Z,3.60
2018-04-26T07:16:57.590Z,3.23
2018-04-26T07:19:23.816Z,2.53
2018-04-26T07:21:50.154Z,3.00
2018-04-26T07:24:16.396Z,2.20
2018-04-26T07:26:42.600Z,6.30
2018-04-26T07:29:08.860Z,1.93
2018-04-26T07:31:35.078Z,2.50
2018-04-26T07:34:01.301Z,2.70
2018-04-26T07:36:27.535Z,3.43
2018-04-26T07:38:53.783Z,2.20
2018-04-26T07:41:19.991Z,1.67
2018-04-26T07:43:46.200Z,3.80
2018-04-26T07:46:12.838Z,4.90
2018-04-26T07:48:39.032Z,5.80
2018-04-26T07:51:05.328Z,6.33
2018-04-26T07:53:31.620Z,3.30
2018-04-26T07:55:57.989Z,3.97
2018-04-26T07:58:24.211Z,3.30
2018-04-26T08:00:50.665Z,4.40
2018-04-26T08:03:17.608Z,6.17
2018-04-26T08:05:43.820Z,9.43
2018-04-26T08:08:10.030Z,5.63
2018-04-26T08:10:36.264Z,5.10
2018-04-26T08:13:02.564Z,5.00
2018-04-26T08:15:28.804Z,5.90
2018-04-26T08:17:55.003Z,6.50
2018-04-26T08:20:21.961Z,7.30
2018-04-26T08:22:48.287Z,7.23
2018-04-26T08:25:14.586Z,11.50
2018-04-26T08:27:40.843Z,7.93
2018-04-26T08:30:07.040Z,7.00
2018-04-26T08:32:33.352Z,6.70
2018-04-26T08:34:59.566Z,6.50
2018-04-26T08:37:25.861Z,10.70
2018-04-26T08:39:52.134Z,7.00
2018-04-26T08:42:18.511Z,9.70
2018-04-26T08:44:45.444Z,11.40
2018-04-26T08:47:11.736Z,8.17
2018-04-26T08:49:37.984Z,6.80
2018-04-26T08:52:04.299Z,9.13
2018-04-26T08:54:30.610Z,12.83
2018-04-26T08:56:56.831Z,9.00
2018-04-26T08:59:23.042Z,9.27
2018-04-26T09:01:49.303Z,10.13
2018-04-26T09:04:16.875Z,9.90
2018-04-26T09:06:43.121Z,8.33
2018-04-26T09:09:09.354Z,9.40
2018-04-26T09:11:36.343Z,10.43
2018-04-26T09:14:02.567Z,8.57
2018-04-26T09:16:29.599Z,6.80
2018-04-26T09:18:56.595Z,10.33
2018-04-26T09:21:22.819Z,9.10
2018-04-26T09:23:49.048Z,7.17
2018-04-26T09:26:15.309Z,7.93
2018-04-26T09:28:41.648Z,7.20
2018-04-26T09:31:07.852Z,7.87
2018-04-26T09:33:34.132Z,9.53
2018-04-26T09:36:00.353Z,13.10
2018-04-26T09:38:26.552Z,7.97
2018-04-26T09:40:52.844Z,7.80
2018-04-26T09:43:19.101Z,7.70
2018-04-26T09:45:45.420Z,11.73
2018-04-26T09:48:11.644Z,4.67
2018-04-26T09:50:37.950Z,4.30
2018-04-26T09:53:04.190Z,4.90
2018-04-26T09:55:30.592Z,4.83
2018-04-26T09:57:56.782Z,3.93
2018-04-26T10:00:27.074Z,3.50
2018-04-26T10:02:53.360Z,6.80
2018-04-26T10:05:19.602Z,4.67
2018-04-26T10:07:45.968Z,3.97
2018-04-26T10:10:12.275Z,4.57
2018-04-26T10:12:38.648Z,2.57
2018-04-26T10:15:04.967Z,2.50
2018-04-26T10:17:31.147Z,3.17
2018-04-26T10:19:57.424Z,2.27
2018-04-26T10:22:23.636Z,3.20
2018-04-26T10:24:51.011Z,2.90
2018-04-26T10:27:17.208Z,2.23
2018-04-26T10:29:44.182Z,2.70
2018-04-26T10:32:10.427Z,3.27
2018-04-26T10:34:36.632Z,4.00
2018-04-26T10:37:02.936Z,3.47
2018-04-26T10:39:29.902Z,3.60
2018-04-26T10:41:56.956Z,5.17
2018-04-26T10:44:23.174Z,4.23
2018-04-26T10:46:50.106Z,4.10
2018-04-26T10:49:17.091Z,8.30
2018-04-26T10:51:43.276Z,5.10
2018-04-26T10:54:10.272Z,4.10
2018-04-26T10:56:36.474Z,5.10
2018-04-26T10:59:02.792Z,6.90
2018-04-26T11:01:29.751Z,6.20
2018-04-26T11:03:55.974Z,2.90
2018-04-26T11:06:22.936Z,1.80
2018-04-26T11:08:49.168Z,1.20
2018-04-26T11:11:15.396Z,1.63
2018-04-26T11:13:41.664Z,2.50
2018-04-26T11:16:07.918Z,1.50
2018-04-26T11:18:34.188Z,4.30
2018-04-26T11:21:00.400Z,3.00
2018-04-26T11:23:26.627Z,1.70
2018-04-26T11:25:52.869Z,3.73
2018-04-26T11:28:19.221Z,2.93
2018-04-26T11:30:45.419Z,2.63
2018-04-26T11:33:11.647Z,5.53
2018-04-26T11:35:37.860Z,3.03
2018-04-26T11:38:04.988Z,4.93
2018-04-26T11:40:31.204Z,5.30
2018-04-26T11:42:57.408Z,4.83
2018-04-26T11:45:23.730Z,5.47
2018-04-26T11:47:49.948Z,3.10
2018-04-26T11:50:16.132Z,2.90
2018-04-26T11:52:42.332Z,3.90
2018-04-26T11:55:08.540Z,3.00
2018-04-26T11:57:34.787Z,2.03
2018-04-26T12:00:01.028Z,2.90
2018-04-26T12:02:27.238Z,2.57
2018-04-26T12:04:53.643Z,2.33
2018-04-26T12:07:20.589Z,4.93
2018-04-26T12:09:47.611Z,2.60
2018-04-26T12:12:13.920Z,3.00
2018-04-26T12:14:40.174Z,4.47
2018-04-26T12:17:06.422Z,7.50
2018-04-26T12:19:33.388Z,4.57
2018-04-26T12:21:59.820Z,4.20
2018-04-26T12:24:26.044Z,5.37
2018-04-26T12:26:52.436Z,3.90
2018-04-26T12:29:18.662Z,4.80
2018-04-26T12:31:44.912Z,5.23
2018-04-26T12:34:11.873Z,5.00
2018-04-26T12:36:38.827Z,3.90
2018-04-26T12:39:05.204Z,3.07
2018-04-26T12:41:31.412Z,7.63
2018-04-26T12:43:57.607Z,4.50
2018-04-26T12:46:24.690Z,4.00
2018-04-26T12:48:50.883Z,4.87
2018-04-26T12:51:17.830Z,5.60
2018-04-26T12:53:44.799Z,3.60
2018-04-26T12:56:11.027Z,4.27
2018-04-26T12:58:37.231Z,3.67
2018-04-26T13:01:03.464Z,3.93
2018-04-26T13:03:30.425Z,2.77
2018-04-26T13:05:57.098Z,3.80
2018-04-26T13:08:23.442Z,2.77
2018-04-26T13:10:49.829Z,3.57
2018-04-26T13:13:16.104Z,6.80
2018-04-26T13:15:42.778Z,4.10
2018-04-26T13:18:09.795Z,7.13
2018-04-26T13:20:36.011Z,6.73
2018-04-26T13:23:02.256Z,4.00
2018-04-26T13:25:28.476Z,3.23
2018-04-26T13:27:54.703Z,2.60
2018-04-26T13:30:20.936Z,4.77
2018-04-26T13:32:47.170Z,2.07
2018-04-26T13:35:14.204Z,2.60
2018-04-26T13:37:40.444Z,3.90
2018-04-26T13:40:07.422Z,2.60
2018-04-26T13:42:34.548Z,2.47
2018-04-26T13:45:01.280Z,1.80
2018-04-26T13:47:27.592Z,2.90
2018-04-26T13:49:53.813Z,3.40
2018-04-26T13:52:20.104Z,1.83
2018-04-26T13:54:47.106Z,1.80
2018-04-26T13:57:13.454Z,4.50
2018-04-26T13:59:39.767Z,3.67
2018-04-26T14:02:06.024Z,2.80
2018-04-26T14:04:32.249Z,5.13
2018-04-26T14:06:58.490Z,3.80
2018-04-26T14:09:25.451Z,2.23
2018-04-26T14:11:51.753Z,2.70
2018-04-26T14:14:17.960Z,2.10
2018-04-26T14:16:44.951Z,2.37
2018-04-26T14:19:11.334Z,2.80
2018-04-26T14:21:37.608Z,4.23
2018-04-26T14:24:04.600Z,3.33
2018-04-26T14:26:30.962Z,3.43
2018-04-26T14:28:57.171Z,5.03
2018-04-26T14:31:23.400Z,4.43
2018-04-26T14:33:49.641Z,4.30
2018-04-26T14:36:15.880Z,3.73
2018-04-26T14:38:42.127Z,3.53
2018-04-26T14:41:08.315Z,2.23
2018-04-26T14:43:34.528Z,2.80
2018-04-26T14:46:00.713Z,4.50
2018-04-26T14:48:28.158Z,1.93
2018-04-26T14:50:54.484Z,2.20
2018-04-26T14:53:20.686Z,5.90
2018-04-26T14:55:47.003Z,5.40
2018-04-26T14:58:13.260Z,2.43
2018-04-26T15:00:39.583Z,1.73
2018-04-26T15:03:05.917Z,2.53
2018-04-26T15:05:32.215Z,4.00
2018-04-26T15:07:58.428Z,3.13
2018-04-26T15:10:25.376Z,2.50
2018-04-26T15:12:52.376Z,4.83
2018-04-26T15:15:18.722Z,3.40
2018-04-26T15:17:44.892Z,2.70
2018-04-26T15:20:11.142Z,2.50
2018-04-26T15:22:37.348Z,2.20
2018-04-26T15:25:03.716Z,3.37
2018-04-26T15:27:29.980Z,4.90
2018-04-26T15:29:56.944Z,5.03
2018-04-26T15:32:23.906Z,6.23
2018-04-26T15:34:50.538Z,3.53
2018-04-26T15:37:16.795Z,4.93
2018-04-26T15:39:43.027Z,3.80
2018-04-26T15:42:09.276Z,8.70
2018-04-26T15:44:35.479Z,4.50
2018-04-26T15:47:01.779Z,2.93
2018-04-26T15:49:28.775Z,3.10
2018-04-26T15:51:55.200Z,3.40
2018-04-26T15:54:33.656Z,5.23
2018-04-26T15:57:12.751Z,6.13
2018-04-26T15:59:51.403Z,2.60
2018-04-26T16:05:57.830Z,3.03
2018-04-26T16:08:37.015Z,6.70
2018-04-26T16:11:21.405Z,3.50
2018-04-26T16:14:04.810Z,2.90
2018-04-26T16:16:49.462Z,2.20
2018-04-26T16:19:34.158Z,3.43
2018-04-26T16:22:18.903Z,1.53
2018-04-26T16:24:57.469Z,2.47
2018-04-26T16:27:42.206Z,4.77
2018-04-26T16:30:20.677Z,3.53
2018-04-26T16:33:04.961Z,2.90
2018-04-26T16:35:55.082Z,7.13
2018-04-26T16:38:33.615Z,2.80
2018-04-26T16:40:59.863Z,6.50
2018-04-26T16:43:25.987Z,3.87
2018-04-26T16:45:52.133Z,4.40
2018-04-26T16:48:18.250Z,2.27
2018-04-26T16:50:45.132Z,5.07
2018-04-26T16:53:11.995Z,7.63
2018-04-26T16:55:38.125Z,6.00
2018-04-26T16:58:04.298Z,4.50
2018-04-26T17:00:30.481Z,4.67
2018-04-26T17:02:56.990Z,7.97
2018-04-26T17:05:23.141Z,4.27
2018-04-26T17:07:50.070Z,2.30
2018-04-26T17:10:16.330Z,5.60
2018-04-26T17:12:43.232Z,4.57
2018-04-26T17:15:09.389Z,3.80
2018-04-26T17:17:35.547Z,3.77
2018-04-26T17:20:02.482Z,5.03
2018-04-26T17:22:29.374Z,3.83
2018-04-26T17:24:55.589Z,3.93
2018-04-26T17:27:22.451Z,5.07
2018-04-26T17:29:48.592Z,3.07
2018-04-26T17:32:14.746Z,3.90
2018-04-26T17:34:40.921Z,3.40
2018-04-26T17:37:07.707Z,2.37
2018-04-26T17:39:33.842Z,9.53
2018-04-26T17:42:00.015Z,5.87
2018-04-26T17:44:27.472Z,3.23
2018-04-26T17:46:54.340Z,3.60
2018-04-26T17:49:20.552Z,6.83
2018-04-26T17:51:46.839Z,3.70
2018-04-26T17:54:13.053Z,6.50
2018-04-26T17:56:39.954Z,3.90
2018-04-26T17:59:06.125Z,8.37
2018-04-26T18:01:32.318Z,4.00
2018-04-26T18:03:58.610Z,3.87
2018-04-26T18:06:24.781Z,11.17
2018-04-26T18:08:50.912Z,4.93
2018-04-26T18:11:17.119Z,3.90
2018-04-26T18:13:43.337Z,4.53
2018-04-26T18:16:09.480Z,3.03
2018-04-26T18:18:35.610Z,4.30
2018-04-26T18:21:01.765Z,7.17
2018-04-26T18:23:28.051Z,3.70
2018-04-26T18:25:54.185Z,5.63
2018-04-26T18:28:20.309Z,7.17
2018-04-26T18:30:47.233Z,3.03
2018-04-26T18:33:13.364Z,4.90
2018-04-26T18:35:39.671Z,4.53
2018-04-26T18:38:05.909Z,4.63
2018-04-26T18:40:32.107Z,3.60
2018-04-26T18:42:58.238Z,6.73
2018-04-26T18:45:24.633Z,3.90
2018-04-26T18:47:51.554Z,4.90
2018-04-26T18:50:17.829Z,5.97
2018-04-26T18:52:44.129Z,3.60
2018-04-26T18:55:10.295Z,3.30
2018-04-26T18:57:36.534Z,9.57
2018-04-26T19:00:02.803Z,10.50
2018-04-26T19:02:28.951Z,5.27
2018-04-26T19:04:55.176Z,5.20
2018-04-26T19:07:22.050Z,4.37
2018-04-26T19:09:48.174Z,5.10
2018-04-26T19:12:14.349Z,5.97
2018-04-26T19:14:40.505Z,6.00
2018-04-26T19:17:07.441Z,7.80
2018-04-26T19:19:33.636Z,9.07
2018-04-26T19:21:59.828Z,10.50
2018-04-26T19:24:26.706Z,9.00
2018-04-26T19:26:52.962Z,9.73
2018-04-26T19:29:20.166Z,10.10
2018-04-26T19:31:46.298Z,11.33
2018-04-26T19:34:13.174Z,7.77
2018-04-26T19:36:39.391Z,11.70
2018-04-26T19:39:05.652Z,8.37
2018-04-26T19:41:31.771Z,7.13
2018-04-26T19:43:58.009Z,5.83
2018-04-26T19:46:24.214Z,8.37
2018-04-26T19:48:50.422Z,7.03
2018-04-26T19:51:16.754Z,8.87
2018-04-26T19:53:42.909Z,6.67
2018-04-26T19:56:09.101Z,8.13
2018-04-26T19:58:36.098Z,7.57
2018-04-26T20:01:02.365Z,4.80
2018-04-26T20:03:28.609Z,3.80
2018-04-26T20:05:54.801Z,3.97
2018-04-26T20:08:21.111Z,8.77
2018-04-26T20:10:48.022Z,9.20
2018-04-26T20:13:14.432Z,6.93
2018-04-26T20:15:41.417Z,7.03
2018-04-26T20:18:07.550Z,6.33
2018-04-26T20:20:34.425Z,6.33
2018-04-26T20:23:01.514Z,3.73
2018-04-26T20:25:27.670Z,7.47
2018-04-26T20:27:53.938Z,5.43
2018-04-26T20:30:20.804Z,5.13
2018-04-26T20:32:46.937Z,7.67
2018-04-26T20:35:13.165Z,5.97
2018-04-26T20:37:39.421Z,5.57
2018-04-26T20:40:05.618Z,3.80
2018-04-26T20:42:31.944Z,7.03
2018-04-26T20:44:58.171Z,3.30
2018-04-26T20:47:25.451Z,4.77
2018-04-26T20:49:51.745Z,4.63
2018-04-26T20:52:17.887Z,4.33
2018-04-26T20:54:44.186Z,3.97
2018-04-26T20:57:11.057Z,4.13
2018-04-26T20:59:37.465Z,6.20
2018-04-26T21:02:04.354Z,8.43
2018-04-26T21:04:31.358Z,4.50
2018-04-26T21:06:57.609Z,4.70
2018-04-26T21:09:24.523Z,7.27
2018-04-26T21:11:50.661Z,5.00
2018-04-26T21:14:16.941Z,4.63
2018-04-26T21:16:43.073Z,3.80
2018-04-26T21:19:10.048Z,7.43
2018-04-26T21:21:36.978Z,6.60
2018-04-26T21:24:04.290Z,4.33
2018-04-26T21:26:30.481Z,3.87
2018-04-26T21:28:56.627Z,6.10
2018-04-26T21:31:22.922Z,5.57
2018-04-26T21:33:49.089Z,5.60
2018-04-26T21:36:15.401Z,4.17
2018-04-26T21:38:41.574Z,5.10
2018-04-26T21:41:07.694Z,6.70
2018-04-26T21:43:33.832Z,6.57
2018-04-26T21:45:59.990Z,5.83
2018-04-26T21:48:26.125Z,3.50
2018-04-26T21:50:58.441Z,7.40
2018-04-26T21:53:30.805Z,7.20
2018-04-26T21:56:03.472Z,4.63
2018-04-26T21:58:35.751Z,7.33
2018-04-26T22:01:08.053Z,5.00
2018-04-26T22:03:47.142Z,8.80
2018-04-26T22:06:14.069Z,6.33
2018-04-26T22:08:40.186Z,8.67
2018-04-26T22:11:06.341Z,7.50
2018-04-26T22:13:32.474Z,7.23
2018-04-26T22:15:58.595Z,3.10
2018-04-26T22:18:24.827Z,6.33
2018-04-26T22:20:50.997Z,6.37
2018-04-26T22:23:17.170Z,6.87
2018-04-26T22:25:43.381Z,11.40
2018-04-26T22:28:10.320Z,4.07
2018-04-26T22:30:37.240Z,8.40
2018-04-26T22:33:03.380Z,4.27
2018-04-26T22:35:29.501Z,5.03
2018-04-26T22:37:55.682Z,7.07
2018-04-26T22:40:21.846Z,6.60
2018-04-26T22:42:47.987Z,4.67
2018-04-26T22:45:14.877Z,5.20
2018-04-26T22:47:41.042Z,4.30
2018-04-26T22:50:07.279Z,7.50
2018-04-26T22:52:33.410Z,7.87
2018-04-26T22:54:59.673Z,7.37
2018-04-26T22:57:25.821Z,6.70
2018-04-26T22:59:52.767Z,7.73
2018-04-26T23:02:18.916Z,8.30
2018-04-26T23:04:45.104Z,8.40
2018-04-26T23:07:11.809Z,10.00
2018-04-26T23:09:37.936Z,6.43
2018-04-26T23:12:04.173Z,5.73
2018-04-26T23:14:30.314Z,6.47
2018-04-26T23:16:57.130Z,7.50
2018-04-26T23:19:23.250Z,5.30
2018-04-26T23:21:50.148Z,9.13
2018-04-26T23:24:16.289Z,8.17
2018-04-26T23:26:42.405Z,9.57
2018-04-26T23:29:08.557Z,5.80
2018-04-26T23:31:34.743Z,10.63
2018-04-26T23:34:00.908Z,8.43
2018-04-26T23:36:27.862Z,7.23
2018-04-26T23:38:54.001Z,8.10
2018-04-26T23:41:20.152Z,5.50
2018-04-26T23:43:46.305Z,6.50
2018-04-26T23:46:13.213Z,5.63
2018-04-26T23:48:40.378Z,7.47
2018-04-26T23:51:06.618Z,5.73
2018-04-26T23:53:32.921Z,7.17
2018-04-26T23:55:59.094Z,9.90
2018-04-26T23:58:25.255Z,11.43
